Time;durP1;ratioP1;P1;durP2;ratioP2;P2;SDS_P1;SDS_P2;PMS_P1;PMS_P2;Temp;Humidity;BMP_temperature;BMP_pressure;BME280_temperature;BME280_humidity;BME280_pressure;Samples;Min_cycle;Max_cycle;Signal;HPM_P1;HPM_P2
2023/11/17 00:00:35;;;;;;;51.67;21.95;;;7.60;99.90;;;;;;5040459;28;20025;-59
2023/11/17 00:03:00;;;;;;;59.60;22.40;;;7.60;99.90;;;;;;5049801;28;20479;-59
2023/11/17 00:05:26;;;;;;;58.25;23.92;;;7.60;99.90;;;;;;5043215;28;20040;-52
2023/11/17 00:07:52;;;;;;;48.80;23.48;;;7.50;99.90;;;;;;5050355;28;20483;-56
2023/11/17 00:10:17;;;;;;;54.88;25.45;;;7.50;99.90;;;;;;5050624;28;20483;-59
2023/11/17 00:12:43;;;;;;;57.65;24.33;;;7.40;99.90;;;;;;5041425;28;20083;-58
2023/11/17 00:15:12;;;;;;;52.33;23.92;;;7.40;99.90;;;;;;5044740;28;20017;-60
2023/11/17 00:17:37;;;;;;;55.83;25.70;;;7.40;99.90;;;;;;5051404;28;20029;-57
2023/11/17 00:20:03;;;;;;;56.70;24.25;;;7.40;99.90;;;;;;5045942;28;20078;-57
2023/11/17 00:23:06;;;;;;;56.95;22.58;;;7.40;99.90;;;;;;5048912;28;20067;-59
2023/11/17 00:25:33;;;;;;;55.13;23.30;;;7.40;99.90;;;;;;5039523;28;20553;-60
2023/11/17 00:27:58;;;;;;;50.72;24.17;;;7.40;99.90;;;;;;5046503;28;20041;-57
2023/11/17 00:30:24;;;;;;;58.25;24.48;;;7.40;99.90;;;;;;5041969;28;20095;-59
2023/11/17 00:32:49;;;;;;;52.30;22.75;;;7.30;99.90;;;;;;5042507;28;20380;-59
2023/11/17 00:35:15;;;;;;;52.75;24.23;;;7.30;99.90;;;;;;5041977;28;20408;-59
2023/11/17 00:37:41;;;;;;;46.70;22.98;;;7.30;99.90;;;;;;5043663;28;20031;-61
2023/11/17 00:40:07;;;;;;;54.47;22.30;;;7.20;99.90;;;;;;5038466;28;20025;-57
2023/11/17 00:42:33;;;;;;;50.75;21.30;;;7.20;99.90;;;;;;5043151;28;20078;-56
2023/11/17 00:44:59;;;;;;;54.38;23.27;;;7.20;99.90;;;;;;5043094;28;20458;-58
2023/11/17 00:47:25;;;;;;;49.65;20.52;;;7.10;99.90;;;;;;5042712;28;20031;-56
2023/11/17 00:49:51;;;;;;;48.30;20.40;;;7.10;99.90;;;;;;5043496;28;20094;-56
2023/11/17 00:52:17;;;;;;;48.95;18.90;;;7.00;99.90;;;;;;5042725;28;20021;-59
2023/11/17 00:54:43;;;;;;;43.10;19.23;;;7.00;99.90;;;;;;5044719;28;20033;-58
2023/11/17 00:57:10;;;;;;;39.10;18.25;;;7.00;99.90;;;;;;5045092;28;20545;-59
2023/11/17 00:59:38;;;;;;;51.63;18.85;;;6.90;99.90;;;;;;5046079;28;20554;-59
2023/11/17 01:02:04;;;;;;;38.30;16.92;;;6.90;99.90;;;;;;5042901;28;20021;-59
2023/11/17 01:04:31;;;;;;;46.08;19.38;;;6.80;99.90;;;;;;5043323;28;20086;-60
2023/11/17 01:06:56;;;;;;;37.15;16.90;;;6.80;99.90;;;;;;5039762;28;20035;-59
2023/11/17 01:09:23;;;;;;;36.08;16.35;;;6.80;99.90;;;;;;5040125;28;20032;-57
2023/11/17 01:11:48;;;;;;;34.80;16.85;;;6.80;99.90;;;;;;5038574;28;20040;-61
2023/11/17 01:14:15;;;;;;;39.60;16.40;;;6.80;99.90;;;;;;5041241;28;20021;-59
2023/11/17 01:16:40;;;;;;;38.15;16.42;;;6.80;99.90;;;;;;5042930;28;20021;-60
2023/11/17 01:19:06;;;;;;;34.70;14.77;;;6.70;99.90;;;;;;5042121;28;20434;-59
2023/11/17 01:21:31;;;;;;;34.80;15.85;;;6.80;99.90;;;;;;5040953;28;20067;-58
2023/11/17 01:23:59;;;;;;;32.13;16.27;;;6.70;99.90;;;;;;5039389;28;20170;-58
2023/11/17 01:26:25;;;;;;;35.40;15.35;;;6.70;99.90;;;;;;5041426;28;20025;-59
2023/11/17 01:28:50;;;;;;;33.38;15.18;;;6.60;99.90;;;;;;5040853;28;20037;-57
2023/11/17 01:31:16;;;;;;;46.70;16.05;;;6.60;99.90;;;;;;5042255;28;21198;-58
2023/11/17 01:33:42;;;;;;;33.58;14.02;;;6.60;99.90;;;;;;5044509;28;20034;-57
2023/11/17 01:36:08;;;;;;;32.97;15.32;;;6.60;99.90;;;;;;5041671;28;20021;-57
2023/11/17 01:38:34;;;;;;;38.85;15.60;;;6.50;99.90;;;;;;5042251;28;20083;-59
2023/11/17 01:40:59;;;;;;;35.13;15.05;;;6.50;99.90;;;;;;5047419;28;20491;-58
2023/11/17 01:43:25;;;;;;;32.70;15.32;;;6.50;99.90;;;;;;5041600;28;20029;-57
2023/11/17 01:45:52;;;;;;;39.08;15.65;;;6.40;99.90;;;;;;5041575;28;20083;-57
2023/11/17 01:48:18;;;;;;;30.65;15.13;;;6.30;99.90;;;;;;5041711;28;20021;-58
2023/11/17 01:50:44;;;;;;;35.53;15.88;;;6.30;99.90;;;;;;5041444;28;20021;-57
2023/11/17 01:53:11;;;;;;;35.50;15.65;;;6.20;99.90;;;;;;5044357;28;20056;-57
2023/11/17 01:55:36;;;;;;;38.13;15.25;;;6.20;99.90;;;;;;5046404;28;20629;-58
2023/11/17 01:58:02;;;;;;;34.97;16.45;;;6.30;99.90;;;;;;5046953;28;20124;-52
2023/11/17 02:00:28;;;;;;;38.67;15.90;;;6.30;99.90;;;;;;5044439;28;20029;-56
2023/11/17 02:02:55;;;;;;;31.95;15.05;;;6.30;99.90;;;;;;5049173;28;20029;-59
2023/11/17 02:05:24;;;;;;;34.45;15.52;;;6.30;99.90;;;;;;5047876;28;20569;-58
2023/11/17 02:08:26;;;;;;;35.80;15.80;;;6.40;99.90;;;;;;5050478;28;20021;-60
2023/11/17 02:11:11;;;;;;;40.05;16.80;;;6.40;99.90;;;;;;5050328;28;20051;-58
2023/11/17 02:14:05;;;;;;;40.33;16.67;;;6.40;99.90;;;;;;5052924;28;20107;-55
2023/11/17 02:16:35;;;;;;;40.85;16.13;;;6.30;99.90;;;;;;5040536;28;20026;-59
2023/11/17 02:19:04;;;;;;;39.90;15.75;;;6.40;99.90;;;;;;5042041;28;20036;-58
2023/11/17 02:21:31;;;;;;;39.58;16.40;;;6.30;99.90;;;;;;5047532;28;20541;-57
2023/11/17 02:24:06;;;;;;;31.60;16.42;;;6.30;99.90;;;;;;5052838;28;20036;-57
2023/11/17 02:26:42;;;;;;;36.15;16.95;;;6.30;99.90;;;;;;5050007;28;20087;-59
2023/11/17 02:29:27;;;;;;;39.25;16.33;;;6.30;99.90;;;;;;5046918;28;20023;-57
2023/11/17 02:31:54;;;;;;;37.28;15.40;;;6.30;99.90;;;;;;5044700;28;20036;-59
2023/11/17 02:34:25;;;;;;;37.60;16.00;;;6.20;99.90;;;;;;5040730;28;20037;-59
2023/11/17 02:36:51;;;;;;;32.20;15.85;;;6.20;99.90;;;;;;5049899;28;20048;-56
2023/11/17 02:39:36;;;;;;;40.15;18.02;;;6.20;99.90;;;;;;5046575;28;20037;-60
2023/11/17 02:42:10;;;;;;;33.97;15.43;;;6.20;99.90;;;;;;5044122;28;20044;-59
2023/11/17 02:44:39;;;;;;;40.30;16.80;;;6.20;99.90;;;;;;5044601;28;20029;-56
2023/11/17 02:47:08;;;;;;;33.33;16.52;;;6.20;99.90;;;;;;5044850;28;20108;-58
2023/11/17 02:49:42;;;;;;;39.10;15.93;;;6.10;99.90;;;;;;5043154;28;20128;-59
2023/11/17 02:52:31;;;;;;;49.50;15.20;;;6.00;99.90;;;;;;5044437;28;20028;-58
2023/11/17 02:55:01;;;;;;;38.95;16.35;;;6.00;99.90;;;;;;5050616;28;20025;-57
2023/11/17 02:57:27;;;;;;;54.97;15.30;;;6.00;99.90;;;;;;5052763;28;20150;-57
2023/11/17 02:59:54;;;;;;;30.38;15.57;;;6.00;99.90;;;;;;5051394;28;20032;-57
2023/11/17 03:02:20;;;;;;;34.60;15.95;;;6.00;99.90;;;;;;5039675;28;20037;-59
2023/11/17 03:04:49;;;;;;;32.65;14.13;;;5.80;99.90;;;;;;5046553;28;20139;-54
2023/11/17 03:07:15;;;;;;;36.20;15.32;;;5.70;99.90;;;;;;5042476;28;20569;-57
2023/11/17 03:09:40;;;;;;;31.17;15.30;;;5.50;99.90;;;;;;5044766;28;20483;-59
2023/11/17 03:12:06;;;;;;;42.17;15.40;;;5.30;99.90;;;;;;5042930;28;20040;-60
2023/11/17 03:14:32;;;;;;;38.53;15.63;;;5.00;99.90;;;;;;5044432;28;20041;-59
2023/11/17 03:16:59;;;;;;;31.30;15.48;;;4.90;99.90;;;;;;5043107;28;20028;-58
2023/11/17 03:19:30;;;;;;;31.75;16.35;;;4.80;99.90;;;;;;5042935;28;20043;-59
2023/11/17 03:21:55;;;;;;;37.00;15.73;;;4.80;99.90;;;;;;5042698;28;20124;-58
2023/11/17 03:24:23;;;;;;;35.72;15.85;;;4.80;99.90;;;;;;5043514;28;20116;-57
2023/11/17 03:26:52;;;;;;;39.03;15.90;;;4.80;99.90;;;;;;5042717;28;20037;-57
2023/11/17 03:29:18;;;;;;;38.28;16.58;;;4.80;99.90;;;;;;5043724;28;20066;-59
2023/11/17 03:31:48;;;;;;;38.78;17.35;;;4.80;99.90;;;;;;5041659;28;20502;-55
2023/11/17 03:34:23;;;;;;;41.88;17.15;;;4.80;99.90;;;;;;5053046;28;20056;-60
2023/11/17 03:37:00;;;;;;;38.67;16.13;;;4.80;99.90;;;;;;5039616;28;20035;-58
2023/11/17 03:39:30;;;;;;;37.28;16.70;;;4.70;99.90;;;;;;5042361;28;20497;-59
2023/11/17 03:41:56;;;;;;;35.25;16.50;;;4.50;99.90;;;;;;5041527;28;20112;-60
2023/11/17 03:44:25;;;;;;;39.65;17.63;;;4.40;99.90;;;;;;5043267;28;20029;-58
2023/11/17 03:46:54;;;;;;;41.35;16.83;;;4.40;99.90;;;;;;5043950;28;20078;-59
2023/11/17 03:49:20;;;;;;;39.15;17.17;;;4.40;99.90;;;;;;5042391;28;20029;-56
2023/11/17 03:51:50;;;;;;;41.45;17.33;;;4.50;99.90;;;;;;5039813;28;20048;-59
2023/11/17 03:54:22;;;;;;;38.25;16.65;;;4.40;99.90;;;;;;5042188;28;20124;-59
2023/11/17 03:56:49;;;;;;;37.55;16.58;;;4.30;99.90;;;;;;5044494;28;20079;-56
2023/11/17 03:59:15;;;;;;;37.67;16.10;;;4.30;99.90;;;;;;5048611;28;20021;-56
2023/11/17 04:01:41;;;;;;;36.83;17.05;;;4.20;99.90;;;;;;5044581;28;20024;-58
2023/11/17 04:04:07;;;;;;;37.70;16.73;;;4.20;99.90;;;;;;5051830;28;20476;-59
2023/11/17 04:06:34;;;;;;;44.72;19.83;;;4.20;99.90;;;;;;5049947;28;20033;-60
2023/11/17 04:09:07;;;;;;;44.10;20.80;;;4.10;99.90;;;;;;5045348;28;20048;-57
2023/11/17 04:11:36;;;;;;;37.30;16.60;;;4.00;99.90;;;;;;5046141;28;20033;-57
2023/11/17 04:14:05;;;;;;;36.53;16.75;;;4.00;99.90;;;;;;5044878;28;20048;-59
2023/11/17 04:16:31;;;;;;;33.85;15.95;;;3.80;99.90;;;;;;5047892;28;20032;-59
2023/11/17 04:18:56;;;;;;;38.42;15.80;;;3.90;99.90;;;;;;5051253;28;20368;-58
2023/11/17 04:21:22;;;;;;;34.15;15.65;;;3.90;99.90;;;;;;5048964;28;20029;-56
2023/11/17 04:23:48;;;;;;;35.00;16.95;;;4.00;99.90;;;;;;5046750;28;20033;-58
2023/11/17 04:26:14;;;;;;;47.72;17.90;;;4.10;99.90;;;;;;5047340;28;20510;-58
2023/11/17 04:28:39;;;;;;;41.55;17.42;;;4.30;99.90;;;;;;5050031;28;20056;-56
2023/11/17 04:31:07;;;;;;;36.45;16.85;;;4.30;99.90;;;;;;5045763;28;20036;-57
2023/11/17 04:33:36;;;;;;;39.00;17.38;;;4.20;99.90;;;;;;5047774;28;20407;-58
2023/11/17 04:36:02;;;;;;;44.03;17.02;;;4.20;99.90;;;;;;5041513;28;20075;-58
2023/11/17 04:38:29;;;;;;;39.28;17.15;;;4.10;99.90;;;;;;5042178;28;20111;-58
2023/11/17 04:40:54;;;;;;;32.42;15.15;;;4.00;99.90;;;;;;5043328;28;20029;-55
2023/11/17 04:43:20;;;;;;;45.25;17.65;;;3.90;99.90;;;;;;5041787;28;20494;-58
2023/11/17 04:45:47;;;;;;;79.93;27.50;;;4.00;99.90;;;;;;5042138;28;20029;-57
2023/11/17 04:48:16;;;;;;;59.63;22.23;;;4.20;99.90;;;;;;5041895;28;20037;-56
2023/11/17 04:50:41;;;;;;;58.78;24.33;;;4.30;99.90;;;;;;5040154;28;20033;-59
2023/11/17 04:53:07;;;;;;;57.00;22.48;;;4.40;99.90;;;;;;5041194;28;22051;-58
2023/11/17 04:55:33;;;;;;;54.92;23.10;;;4.40;99.90;;;;;;5045683;28;20084;-56
2023/11/17 04:58:05;;;;;;;74.50;24.77;;;4.40;99.90;;;;;;5046512;28;20059;-58
2023/11/17 05:00:34;;;;;;;73.15;25.30;;;4.50;99.90;;;;;;5046060;28;20492;-56
2023/11/17 05:03:00;;;;;;;67.55;26.00;;;4.50;99.90;;;;;;5042009;28;20083;-58
2023/11/17 05:05:26;;;;;;;82.28;29.33;;;4.50;99.90;;;;;;5045782;28;20040;-58
2023/11/17 05:07:52;;;;;;;73.88;29.15;;;4.50;99.90;;;;;;5048591;28;20036;-57
2023/11/17 05:10:21;;;;;;;77.43;28.30;;;4.50;99.90;;;;;;5049602;28;20033;-57
2023/11/17 05:12:48;;;;;;;67.93;25.55;;;4.40;99.90;;;;;;5046884;28;20020;-58
2023/11/17 05:15:13;;;;;;;68.78;26.02;;;4.40;99.90;;;;;;5047249;28;20032;-51
2023/11/17 05:17:43;;;;;;;63.20;25.92;;;4.40;99.90;;;;;;5045420;28;20033;-59
2023/11/17 05:20:14;;;;;;;66.40;24.73;;;4.40;99.90;;;;;;5041430;28;20025;-58
2023/11/17 05:22:44;;;;;;;63.10;25.17;;;4.40;99.90;;;;;;5040433;28;20564;-57
2023/11/17 05:25:09;;;;;;;60.95;26.63;;;4.50;99.90;;;;;;5049973;28;20040;-56
2023/11/17 05:27:36;;;;;;;64.53;26.15;;;4.50;99.90;;;;;;5045589;28;20403;-58
2023/11/17 05:30:04;;;;;;;64.03;26.52;;;4.60;99.90;;;;;;5047574;28;20033;-59
2023/11/17 05:32:30;;;;;;;72.88;26.95;;;4.60;99.90;;;;;;5048249;28;20487;-57
2023/11/17 05:34:56;;;;;;;74.70;26.60;;;4.70;99.90;;;;;;5047150;28;20033;-57
2023/11/17 05:37:22;;;;;;;64.70;27.00;;;4.80;99.90;;;;;;5042584;28;20033;-58
2023/11/17 05:39:48;;;;;;;70.00;27.45;;;4.80;99.90;;;;;;5048210;28;20040;-58
2023/11/17 05:42:14;;;;;;;55.50;23.05;;;4.80;99.90;;;;;;5043383;28;21556;-60
2023/11/17 05:44:39;;;;;;;60.42;24.20;;;4.70;99.90;;;;;;5049005;28;20401;-60
2023/11/17 05:47:06;;;;;;;56.53;21.42;;;4.50;99.90;;;;;;5045058;28;20486;-58
2023/11/17 05:49:33;;;;;;;60.17;22.90;;;4.50;99.90;;;;;;5049601;28;20025;-56
2023/11/17 05:51:58;;;;;;;55.72;21.27;;;4.50;99.90;;;;;;5041797;28;20025;-56
2023/11/17 05:54:24;;;;;;;59.20;23.05;;;4.50;99.90;;;;;;5043425;28;20516;-59
2023/11/17 05:56:49;;;;;;;62.50;24.13;;;4.50;99.90;;;;;;5044792;28;20037;-57
2023/11/17 05:59:15;;;;;;;71.95;26.42;;;4.50;99.90;;;;;;5047382;28;20450;-58
2023/11/17 06:01:41;;;;;;;69.32;24.80;;;4.50;99.90;;;;;;5042115;28;20048;-58
2023/11/17 06:04:11;;;;;;;64.22;24.77;;;4.60;99.90;;;;;;5046431;28;20104;-58
2023/11/17 06:06:40;;;;;;;69.00;25.45;;;4.60;99.90;;;;;;5045139;28;20419;-58
2023/11/17 06:09:07;;;;;;;82.38;27.55;;;4.60;99.90;;;;;;5045482;28;20035;-57
2023/11/17 06:11:36;;;;;;;73.88;27.83;;;4.70;99.90;;;;;;5050562;28;20438;-55
2023/11/17 06:14:03;;;;;;;67.35;27.20;;;4.70;99.90;;;;;;5057248;28;20029;-59
2023/11/17 06:16:28;;;;;;;69.72;26.70;;;4.70;99.90;;;;;;5052587;28;20035;-60
2023/11/17 06:18:54;;;;;;;68.10;26.00;;;4.60;99.90;;;;;;5056388;28;20100;-60
2023/11/17 06:21:20;;;;;;;66.05;24.75;;;4.50;99.90;;;;;;5052452;28;20024;-58
2023/11/17 06:23:46;;;;;;;70.15;24.67;;;4.40;99.90;;;;;;5052419;28;20029;-59
2023/11/17 06:26:11;;;;;;;75.53;27.63;;;4.40;99.90;;;;;;5052417;28;20043;-59
2023/11/17 06:28:37;;;;;;;77.60;27.67;;;4.30;99.90;;;;;;5051797;28;20068;-56
2023/11/17 06:31:02;;;;;;;73.72;27.92;;;4.30;99.90;;;;;;5053202;28;20943;-59
2023/11/17 06:33:28;;;;;;;73.50;27.73;;;4.40;99.90;;;;;;5050885;28;20029;-58
2023/11/17 06:35:53;;;;;;;84.00;27.58;;;4.40;99.90;;;;;;5047812;28;20026;-58
2023/11/17 06:38:19;;;;;;;84.28;28.92;;;4.40;99.90;;;;;;5048353;28;20141;-57
2023/11/17 06:40:45;;;;;;;73.55;28.45;;;4.40;99.90;;;;;;5043413;28;20034;-61
2023/11/17 06:43:10;;;;;;;83.20;32.47;;;4.40;99.90;;;;;;5046244;28;20368;-60
2023/11/17 06:45:36;;;;;;;72.88;28.75;;;4.50;99.90;;;;;;5050173;28;20036;-56
2023/11/17 06:48:02;;;;;;;81.88;30.33;;;4.40;99.90;;;;;;5053397;28;20025;-57
2023/11/17 06:50:28;;;;;;;89.05;29.13;;;4.40;99.90;;;;;;5062339;28;20113;-57
2023/11/17 06:52:55;;;;;;;79.95;29.00;;;4.50;99.90;;;;;;5051944;28;20240;-58
2023/11/17 06:55:21;;;;;;;94.30;29.80;;;4.40;99.90;;;;;;5053102;28;20033;-56
2023/11/17 06:57:47;;;;;;;87.43;29.77;;;4.30;99.90;;;;;;5053186;28;20518;-58
2023/11/17 07:00:13;;;;;;;95.57;32.83;;;4.30;99.90;;;;;;5052315;28;20047;-58
2023/11/17 07:02:42;;;;;;;89.75;30.25;;;4.30;99.90;;;;;;5051803;28;20021;-56
2023/11/17 07:05:10;;;;;;;86.20;30.80;;;4.30;99.90;;;;;;5053518;28;20456;-58
2023/11/17 07:07:39;;;;;;;91.00;30.83;;;4.30;99.90;;;;;;5050622;28;20082;-57
2023/11/17 07:10:07;;;;;;;94.00;31.33;;;4.30;99.90;;;;;;5050591;28;20521;-56
2023/11/17 07:12:35;;;;;;;82.93;30.73;;;4.30;99.90;;;;;;5051559;28;20090;-60
2023/11/17 07:15:00;;;;;;;84.18;28.23;;;4.30;99.90;;;;;;5052013;28;20013;-57
2023/11/17 07:17:26;;;;;;;72.90;28.95;;;4.30;99.90;;;;;;5053069;28;20040;-58
2023/11/17 07:19:51;;;;;;;89.03;30.00;;;4.40;99.90;;;;;;5051795;28;20071;-59
2023/11/17 07:22:17;;;;;;;89.43;33.13;;;4.40;99.90;;;;;;5050886;28;20068;-59
2023/11/17 07:24:43;;;;;;;83.03;29.45;;;4.40;99.90;;;;;;5051977;28;20037;-57
2023/11/17 07:27:11;;;;;;;82.40;29.20;;;4.50;99.90;;;;;;5050889;28;20021;-58
2023/11/17 07:29:36;;;;;;;81.00;30.77;;;4.60;99.90;;;;;;5052241;28;20056;-57
2023/11/17 07:32:04;;;;;;;86.50;29.55;;;4.60;99.90;;;;;;5049791;28;20056;-56
2023/11/17 07:34:29;;;;;;;66.05;27.55;;;4.60;99.90;;;;;;5046254;28;20075;-58
2023/11/17 07:36:55;;;;;;;95.55;32.40;;;4.80;99.90;;;;;;5050929;28;20055;-57
2023/11/17 07:39:23;;;;;;;71.28;28.65;;;4.90;99.90;;;;;;5050710;28;20040;-57
2023/11/17 07:41:49;;;;;;;79.70;27.23;;;5.00;99.90;;;;;;5050848;28;20134;-57
2023/11/17 07:44:15;;;;;;;78.35;30.13;;;5.10;99.90;;;;;;5052582;28;20025;-55
2023/11/17 07:46:40;;;;;;;68.82;28.92;;;5.20;99.90;;;;;;5052524;28;20021;-58
2023/11/17 07:49:06;;;;;;;72.40;29.10;;;5.30;99.90;;;;;;5050928;28;20102;-57
2023/11/17 07:51:33;;;;;;;72.38;30.83;;;5.30;99.90;;;;;;5049152;28;20086;-57
2023/11/17 07:53:59;;;;;;;79.50;29.75;;;5.40;99.90;;;;;;5052210;28;20017;-57
2023/11/17 07:56:27;;;;;;;83.53;31.75;;;5.40;99.90;;;;;;5052545;28;20029;-57
2023/11/17 07:58:53;;;;;;;82.65;31.50;;;5.50;99.90;;;;;;5050151;28;20086;-57
2023/11/17 08:01:19;;;;;;;96.97;32.20;;;5.60;99.90;;;;;;5047065;28;20047;-58
2023/11/17 08:03:45;;;;;;;80.45;29.90;;;5.60;99.90;;;;;;5049319;28;20044;-59
2023/11/17 08:06:11;;;;;;;84.00;31.85;;;5.60;99.90;;;;;;5050813;28;20681;-53
2023/11/17 08:08:40;;;;;;;89.13;34.35;;;5.70;99.90;;;;;;5049038;28;20052;-57
2023/11/17 08:11:14;;;;;;;92.60;31.92;;;5.80;99.90;;;;;;5049319;28;20100;-59
2023/11/17 08:13:39;;;;;;;95.03;33.67;;;5.90;99.90;;;;;;5051639;28;20021;-57
2023/11/17 08:16:06;;;;;;;115.45;36.30;;;6.00;99.90;;;;;;5051912;28;20090;-58
2023/11/17 08:18:33;;;;;;;106.57;35.90;;;6.00;99.90;;;;;;5050713;28;20499;-55
2023/11/17 08:20:59;;;;;;;100.65;36.03;;;6.10;99.90;;;;;;5050604;28;20032;-59
2023/11/17 08:23:26;;;;;;;110.70;38.75;;;6.10;99.90;;;;;;5046649;28;20035;-58
2023/11/17 08:25:52;;;;;;;100.05;35.80;;;6.30;99.90;;;;;;5051846;28;20028;-54
2023/11/17 08:28:18;;;;;;;106.68;36.67;;;6.30;99.90;;;;;;5050510;28;20025;-52
2023/11/17 08:30:43;;;;;;;114.63;39.22;;;6.40;99.90;;;;;;5044156;28;20514;-55
2023/11/17 08:33:09;;;;;;;112.75;38.83;;;6.40;99.90;;;;;;5047340;28;20040;-51
2023/11/17 08:35:36;;;;;;;113.05;40.33;;;6.50;99.90;;;;;;5045078;28;20422;-56
2023/11/17 08:38:01;;;;;;;102.30;37.63;;;6.40;99.90;;;;;;5044438;28;20106;-53
2023/11/17 08:40:27;;;;;;;96.45;35.92;;;6.50;99.90;;;;;;5049513;28;20048;-57
2023/11/17 08:42:53;;;;;;;114.95;35.30;;;6.60;99.90;;;;;;5044137;28;20559;-53
2023/11/17 08:45:18;;;;;;;96.00;38.28;;;6.70;99.90;;;;;;5048055;28;20075;-54
2023/11/17 08:47:48;;;;;;;103.95;38.90;;;6.80;99.90;;;;;;5044723;28;20029;-55
2023/11/17 08:50:14;;;;;;;108.47;38.63;;;6.80;99.90;;;;;;5044305;28;20060;-56
2023/11/17 08:52:42;;;;;;;108.47;37.95;;;6.90;99.90;;;;;;5047618;28;20053;-56
2023/11/17 08:55:09;;;;;;;109.28;38.08;;;7.00;99.90;;;;;;5044531;28;20017;-55
2023/11/17 08:57:36;;;;;;;107.65;39.50;;;7.00;99.90;;;;;;5043973;28;20020;-53
2023/11/17 09:00:18;;;;;;;117.60;40.05;;;6.90;99.90;;;;;;5042826;28;21132;-58
2023/11/17 09:02:46;;;;;;;107.40;40.25;;;6.90;99.90;;;;;;5045331;28;20434;-56
2023/11/17 09:05:12;;;;;;;104.25;38.90;;;6.90;99.90;;;;;;5042747;28;20041;-58
2023/11/17 09:07:42;;;;;;;108.78;39.03;;;6.90;99.90;;;;;;5047558;28;20408;-59
2023/11/17 09:10:14;;;;;;;111.07;39.33;;;6.90;99.90;;;;;;5043836;28;20028;-60
2023/11/17 09:12:42;;;;;;;98.80;38.50;;;6.90;99.90;;;;;;5046454;28;20453;-59
2023/11/17 09:15:18;;;;;;;100.32;40.45;;;6.90;99.90;;;;;;5044376;28;20024;-58
2023/11/17 09:17:47;;;;;;;103.93;40.38;;;6.90;99.90;;;;;;5046820;28;20041;-62
2023/11/17 09:20:13;;;;;;;106.03;41.25;;;6.90;99.90;;;;;;5043347;28;20037;-58
2023/11/17 09:22:42;;;;;;;106.70;39.97;;;6.90;99.90;;;;;;5047391;28;20035;-59
2023/11/17 09:25:13;;;;;;;104.60;37.92;;;7.00;99.90;;;;;;5043998;28;20549;-57
2023/11/17 09:28:08;;;;;;;112.82;41.85;;;6.90;99.90;;;;;;5047228;28;20040;-57
2023/11/17 09:30:36;;;;;;;101.95;40.28;;;6.90;99.90;;;;;;5041155;28;20102;-59
2023/11/17 09:33:02;;;;;;;101.22;40.28;;;6.90;99.90;;;;;;5044822;28;20483;-54
2023/11/17 09:35:28;;;;;;;109.45;39.88;;;6.90;99.90;;;;;;5046081;28;20036;-57
2023/11/17 09:37:55;;;;;;;117.22;40.05;;;7.00;99.90;;;;;;5044752;28;20041;-59
2023/11/17 09:40:26;;;;;;;113.45;42.67;;;7.00;99.90;;;;;;5046895;28;20056;-57
2023/11/17 09:43:02;;;;;;;116.28;42.47;;;7.00;99.90;;;;;;5045867;28;20037;-54
2023/11/17 09:45:32;;;;;;;118.38;41.95;;;7.10;99.90;;;;;;5049614;28;20040;-60
2023/11/17 09:48:04;;;;;;;122.07;43.60;;;7.10;99.90;;;;;;5049020;28;20095;-59
2023/11/17 09:50:30;;;;;;;110.22;43.30;;;7.20;99.90;;;;;;5050873;28;20039;-58
2023/11/17 09:52:57;;;;;;;119.70;43.83;;;7.20;99.90;;;;;;5050352;28;20035;-57
2023/11/17 09:55:27;;;;;;;119.35;42.67;;;7.20;99.90;;;;;;5050918;28;20249;-58
2023/11/17 09:57:57;;;;;;;114.38;42.08;;;7.20;99.90;;;;;;5049760;28;20036;-55
2023/11/17 10:00:27;;;;;;;118.93;43.80;;;7.20;99.90;;;;;;5049514;28;20522;-56
2023/11/17 10:03:01;;;;;;;119.78;42.38;;;7.30;99.90;;;;;;5049164;28;20047;-56
2023/11/17 10:05:31;;;;;;;130.38;45.85;;;7.30;99.90;;;;;;5040402;28;20059;-57
2023/11/17 10:08:16;;;;;;;146.88;43.35;;;7.40;99.90;;;;;;5048672;28;20496;-57
2023/11/17 10:10:47;;;;;;;156.77;43.80;;;7.40;99.90;;;;;;5050780;28;20446;-59
2023/11/17 10:13:15;;;;;;;118.57;41.03;;;7.50;99.90;;;;;;5048682;28;20056;-55
2023/11/17 10:15:51;;;;;;;126.57;43.38;;;7.50;99.90;;;;;;5049650;28;20025;-56
2023/11/17 10:18:20;;;;;;;110.07;39.70;;;7.50;99.90;;;;;;5050263;28;20091;-53
2023/11/17 10:20:46;;;;;;;118.50;43.45;;;7.60;99.90;;;;;;5049611;28;20418;-55
2023/11/17 10:23:14;;;;;;;123.53;43.95;;;7.50;99.90;;;;;;5049081;28;20029;-59
2023/11/17 10:25:40;;;;;;;124.15;46.63;;;7.50;99.90;;;;;;5050130;28;20055;-57
2023/11/17 10:28:08;;;;;;;126.82;45.03;;;7.50;99.90;;;;;;5049359;28;20051;-59
2023/11/17 10:30:37;;;;;;;119.13;43.30;;;7.50;99.90;;;;;;5050054;28;20029;-57
2023/11/17 10:33:33;;;;;;;131.60;44.40;;;7.40;99.90;;;;;;5048297;28;20040;-58
2023/11/17 10:36:10;;;;;;;127.93;43.15;;;7.40;99.90;;;;;;5048871;28;20463;-58
2023/11/17 10:38:37;;;;;;;105.07;40.67;;;7.40;99.90;;;;;;5046645;28;20044;-60
2023/11/17 10:41:33;;;;;;;118.38;42.92;;;7.50;99.90;;;;;;5046094;28;20039;-57
2023/11/17 10:44:03;;;;;;;121.00;40.15;;;7.60;99.90;;;;;;5048829;28;20782;-55
2023/11/17 10:46:50;;;;;;;131.80;41.78;;;7.70;99.90;;;;;;5048324;28;20071;-59
2023/11/17 10:49:16;;;;;;;125.57;43.72;;;7.80;99.90;;;;;;5048988;28;20491;-58
2023/11/17 10:51:49;;;;;;;117.65;42.67;;;7.80;99.90;;;;;;5049897;28;20033;-55
2023/11/17 10:54:15;;;;;;;125.97;45.50;;;7.90;99.90;;;;;;5047526;28;20029;-56
2023/11/17 10:56:42;;;;;;;128.02;44.83;;;8.00;99.90;;;;;;5044052;28;20025;-59
2023/11/17 10:59:21;;;;;;;121.18;43.10;;;7.90;99.90;;;;;;5047321;28;20041;-57
2023/11/17 11:01:48;;;;;;;108.68;43.13;;;7.90;99.90;;;;;;5048332;28;20054;-54
2023/11/17 11:04:15;;;;;;;113.53;42.83;;;7.90;99.90;;;;;;5050317;28;20029;-56
2023/11/17 11:06:42;;;;;;;115.10;42.35;;;8.00;99.90;;;;;;5049549;28;20506;-52
2023/11/17 11:09:09;;;;;;;135.40;45.65;;;8.00;99.90;;;;;;5049043;28;20163;-58
2023/11/17 11:11:35;;;;;;;121.05;44.22;;;7.90;99.90;;;;;;5049894;28;20029;-56
2023/11/17 11:14:03;;;;;;;119.38;44.03;;;7.80;99.90;;;;;;5048718;28;20074;-58
2023/11/17 11:16:35;;;;;;;137.35;44.60;;;7.90;99.90;;;;;;5045210;28;20071;-59
2023/11/17 11:19:01;;;;;;;121.05;42.97;;;7.80;99.90;;;;;;5046003;28;20453;-57
2023/11/17 11:21:29;;;;;;;120.60;42.30;;;7.80;99.90;;;;;;5048895;28;20033;-54
2023/11/17 11:23:59;;;;;;;123.28;43.13;;;7.90;99.90;;;;;;5044784;28;20036;-58
2023/11/17 11:26:25;;;;;;;115.55;43.25;;;7.90;99.90;;;;;;5041560;28;20660;-56
2023/11/17 11:28:52;;;;;;;121.55;43.08;;;8.00;99.90;;;;;;5047154;28;20068;-58
2023/11/17 11:31:19;;;;;;;108.53;41.97;;;8.10;99.90;;;;;;5048723;28;20132;-60
2023/11/17 11:33:46;;;;;;;119.00;44.35;;;8.20;99.90;;;;;;5048922;28;20158;-59
2023/11/17 11:36:12;;;;;;;111.28;42.42;;;8.20;99.90;;;;;;5047353;28;20503;-58
2023/11/17 11:38:39;;;;;;;126.43;43.83;;;8.30;99.90;;;;;;5047521;28;20039;-55
2023/11/17 11:41:11;;;;;;;121.28;43.50;;;8.20;99.90;;;;;;5053915;28;20117;-57
2023/11/17 11:43:40;;;;;;;121.95;44.47;;;8.30;99.90;;;;;;5049304;28;20028;-54
2023/11/17 11:46:07;;;;;;;105.25;42.55;;;8.30;99.90;;;;;;5044326;28;20033;-59
2023/11/17 11:48:36;;;;;;;117.97;44.03;;;8.40;99.90;;;;;;5045191;28;20037;-58
2023/11/17 11:51:08;;;;;;;120.25;41.63;;;8.40;99.90;;;;;;5045916;28;20049;-58
2023/11/17 11:53:36;;;;;;;112.55;40.13;;;8.40;99.90;;;;;;5049432;28;20037;-60
2023/11/17 11:56:15;;;;;;;117.28;43.70;;;8.40;99.90;;;;;;5046371;28;20032;-55
2023/11/17 11:58:48;;;;;;;122.43;44.83;;;8.40;99.90;;;;;;5039936;28;20036;-55
2023/11/17 12:01:16;;;;;;;115.30;40.08;;;8.30;99.90;;;;;;5049627;28;20174;-54
2023/11/17 12:03:45;;;;;;;109.88;38.78;;;8.30;99.90;;;;;;5053045;28;20033;-56
2023/11/17 12:06:20;;;;;;;103.93;38.13;;;8.40;99.90;;;;;;5045293;28;20175;-56
2023/11/17 12:09:07;;;;;;;95.03;35.67;;;8.40;99.90;;;;;;5051665;28;20024;-55
2023/11/17 12:11:53;;;;;;;103.20;35.60;;;8.30;99.90;;;;;;5048260;28;20021;-58
2023/11/17 12:14:26;;;;;;;101.55;36.60;;;8.30;99.90;;;;;;5057209;28;20164;-56
2023/11/17 12:16:54;;;;;;;92.63;37.13;;;8.40;99.90;;;;;;5046234;28;20104;-55
2023/11/17 12:19:24;;;;;;;89.97;34.75;;;8.40;99.90;;;;;;5040945;28;20474;-56
2023/11/17 12:21:50;;;;;;;95.68;35.38;;;8.50;99.90;;;;;;5050847;28;20028;-58
2023/11/17 12:24:23;;;;;;;90.93;32.97;;;8.40;99.90;;;;;;5044930;28;20404;-55
2023/11/17 12:26:51;;;;;;;95.18;35.22;;;8.40;99.90;;;;;;5048166;28;20082;-57
2023/11/17 12:29:34;;;;;;;106.25;37.90;;;8.50;99.90;;;;;;5041462;28;20118;-57
2023/11/17 12:32:03;;;;;;;99.10;36.80;;;8.50;99.90;;;;;;5048233;28;20025;-55
2023/11/17 12:34:29;;;;;;;102.68;36.97;;;8.40;99.90;;;;;;5043471;28;20551;-57
2023/11/17 12:37:00;;;;;;;90.13;33.78;;;8.50;99.90;;;;;;5047058;28;20028;-57
2023/11/17 12:39:40;;;;;;;101.38;34.15;;;8.50;99.90;;;;;;5046535;28;20575;-56